sensor_id;sensor_type;location;lat;lon;timestamp;P1;durP1;ratioP1;P2;durP2;ratioP2
14040;SDS011;7095;51.388;6.196;2022-07-06T00:00:51;7.50;;;3.97;;
14040;SDS011;7095;51.388;6.196;2022-07-06T00:03:20;4.07;;;3.53;;
14040;SDS011;7095;51.388;6.196;2022-07-06T00:05:49;4.77;;;3.53;;
14040;SDS011;7095;51.388;6.196;2022-07-06T00:08:17;7.77;;;3.90;;
14040;SDS011;7095;51.388;6.196;2022-07-06T00:10:46;7.63;;;4.53;;
14040;SDS011;7095;51.388;6.196;2022-07-06T00:13:15;13.33;;;4.30;;
14040;SDS011;7095;51.388;6.196;2022-07-06T00:15:46;4.87;;;4.33;;
14040;SDS011;7095;51.388;6.196;2022-07-06T00:18:15;5.03;;;3.70;;
14040;SDS011;7095;51.388;6.196;2022-07-06T00:20:44;5.97;;;4.03;;
14040;SDS011;7095;51.388;6.196;2022-07-06T00:23:13;8.77;;;4.80;;
14040;SDS011;7095;51.388;6.196;2022-07-06T00:25:42;7.57;;;4.40;;
14040;SDS011;7095;51.388;6.196;2022-07-06T00:28:11;7.37;;;4.10;;
14040;SDS011;7095;51.388;6.196;2022-07-06T00:30:39;8.30;;;4.37;;
14040;SDS011;7095;51.388;6.196;2022-07-06T00:33:09;7.80;;;4.47;;
14040;SDS011;7095;51.388;6.196;2022-07-06T00:35:38;6.80;;;4.60;;
14040;SDS011;7095;51.388;6.196;2022-07-06T00:38:07;6.03;;;4.47;;
14040;SDS011;7095;51.388;6.196;2022-07-06T00:40:36;9.13;;;5.33;;
14040;SDS011;7095;51.388;6.196;2022-07-06T00:43:05;11.57;;;5.27;;
14040;SDS011;7095;51.388;6.196;2022-07-06T00:45:34;8.00;;;4.20;;
14040;SDS011;7095;51.388;6.196;2022-07-06T00:48:03;6.00;;;4.70;;
14040;SDS011;7095;51.388;6.196;2022-07-06T00:50:33;6.10;;;4.70;;
14040;SDS011;7095;51.388;6.196;2022-07-06T00:53:05;8.93;;;4.30;;
14040;SDS011;7095;51.388;6.196;2022-07-06T00:55:36;6.17;;;4.30;;
14040;SDS011;7095;51.388;6.196;2022-07-06T00:58:07;6.90;;;4.60;;
14040;SDS011;7095;51.388;6.196;2022-07-06T01:00:37;6.00;;;4.93;;
14040;SDS011;7095;51.388;6.196;2022-07-06T01:03:11;5.43;;;4.93;;
14040;SDS011;7095;51.388;6.196;2022-07-06T01:05:42;7.90;;;4.80;;
14040;SDS011;7095;51.388;6.196;2022-07-06T01:08:12;10.23;;;6.50;;
14040;SDS011;7095;51.388;6.196;2022-07-06T01:10:42;9.00;;;5.87;;
14040;SDS011;7095;51.388;6.196;2022-07-06T01:13:12;7.97;;;5.73;;
14040;SDS011;7095;51.388;6.196;2022-07-06T01:15:41;5.43;;;4.50;;
14040;SDS011;7095;51.388;6.196;2022-07-06T01:18:10;8.00;;;4.63;;
14040;SDS011;7095;51.388;6.196;2022-07-06T01:20:40;8.87;;;5.50;;
14040;SDS011;7095;51.388;6.196;2022-07-06T01:23:09;7.57;;;5.23;;
14040;SDS011;7095;51.388;6.196;2022-07-06T01:25:38;8.43;;;4.77;;
14040;SDS011;7095;51.388;6.196;2022-07-06T01:28:07;12.87;;;5.53;;
14040;SDS011;7095;51.388;6.196;2022-07-06T01:30:36;7.53;;;4.77;;
14040;SDS011;7095;51.388;6.196;2022-07-06T01:33:05;6.30;;;4.90;;
14040;SDS011;7095;51.388;6.196;2022-07-06T01:35:33;9.33;;;5.30;;
14040;SDS011;7095;51.388;6.196;2022-07-06T01:38:07;8.80;;;5.23;;
14040;SDS011;7095;51.388;6.196;2022-07-06T01:40:35;8.27;;;5.23;;
14040;SDS011;7095;51.388;6.196;2022-07-06T01:43:04;7.23;;;4.40;;
14040;SDS011;7095;51.388;6.196;2022-07-06T01:45:33;8.63;;;5.10;;
14040;SDS011;7095;51.388;6.196;2022-07-06T01:48:04;9.70;;;5.23;;
14040;SDS011;7095;51.388;6.196;2022-07-06T01:50:33;14.73;;;5.70;;
14040;SDS011;7095;51.388;6.196;2022-07-06T01:53:02;11.77;;;5.63;;
14040;SDS011;7095;51.388;6.196;2022-07-06T01:55:32;10.33;;;5.87;;
14040;SDS011;7095;51.388;6.196;2022-07-06T01:58:01;10.33;;;5.40;;
14040;SDS011;7095;51.388;6.196;2022-07-06T02:00:30;9.20;;;5.47;;
14040;SDS011;7095;51.388;6.196;2022-07-06T02:02:59;8.77;;;5.30;;
14040;SDS011;7095;51.388;6.196;2022-07-06T02:05:27;6.73;;;4.97;;
14040;SDS011;7095;51.388;6.196;2022-07-06T02:07:56;8.83;;;5.10;;
14040;SDS011;7095;51.388;6.196;2022-07-06T02:10:25;7.57;;;4.97;;
14040;SDS011;7095;51.388;6.196;2022-07-06T02:12:55;7.37;;;5.20;;
14040;SDS011;7095;51.388;6.196;2022-07-06T02:15:23;7.83;;;5.43;;
14040;SDS011;7095;51.388;6.196;2022-07-06T02:17:52;7.13;;;5.43;;
14040;SDS011;7095;51.388;6.196;2022-07-06T02:20:23;5.60;;;4.63;;
14040;SDS011;7095;51.388;6.196;2022-07-06T02:22:52;9.33;;;5.03;;
14040;SDS011;7095;51.388;6.196;2022-07-06T02:25:21;6.30;;;4.27;;
14040;SDS011;7095;51.388;6.196;2022-07-06T02:27:50;5.53;;;4.53;;
14040;SDS011;7095;51.388;6.196;2022-07-06T02:30:20;7.67;;;5.00;;
14040;SDS011;7095;51.388;6.196;2022-07-06T02:32:49;6.30;;;5.33;;
14040;SDS011;7095;51.388;6.196;2022-07-06T02:35:17;6.63;;;4.50;;
14040;SDS011;7095;51.388;6.196;2022-07-06T02:37:47;7.50;;;5.07;;
14040;SDS011;7095;51.388;6.196;2022-07-06T02:40:16;8.83;;;5.80;;
14040;SDS011;7095;51.388;6.196;2022-07-06T02:42:45;6.63;;;4.40;;
14040;SDS011;7095;51.388;6.196;2022-07-06T02:45:14;8.87;;;5.10;;
14040;SDS011;7095;51.388;6.196;2022-07-06T02:47:44;10.63;;;5.63;;
14040;SDS011;7095;51.388;6.196;2022-07-06T02:50:13;8.03;;;4.97;;
14040;SDS011;7095;51.388;6.196;2022-07-06T02:52:42;5.90;;;5.30;;
14040;SDS011;7095;51.388;6.196;2022-07-06T02:55:10;8.10;;;5.53;;
14040;SDS011;7095;51.388;6.196;2022-07-06T02:57:40;12.93;;;6.13;;
14040;SDS011;7095;51.388;6.196;2022-07-06T03:00:11;8.00;;;5.70;;
14040;SDS011;7095;51.388;6.196;2022-07-06T03:02:42;9.20;;;5.00;;
14040;SDS011;7095;51.388;6.196;2022-07-06T03:05:13;14.70;;;6.07;;
14040;SDS011;7095;51.388;6.196;2022-07-06T03:07:41;9.97;;;5.47;;
14040;SDS011;7095;51.388;6.196;2022-07-06T03:10:10;7.57;;;4.63;;
14040;SDS011;7095;51.388;6.196;2022-07-06T03:12:39;7.03;;;5.07;;
14040;SDS011;7095;51.388;6.196;2022-07-06T03:15:08;8.63;;;5.13;;
14040;SDS011;7095;51.388;6.196;2022-07-06T03:17:43;6.87;;;5.30;;
14040;SDS011;7095;51.388;6.196;2022-07-06T03:20:14;9.37;;;5.77;;
14040;SDS011;7095;51.388;6.196;2022-07-06T03:22:45;7.60;;;5.77;;
14040;SDS011;7095;51.388;6.196;2022-07-06T03:25:14;9.27;;;4.90;;
14040;SDS011;7095;51.388;6.196;2022-07-06T03:27:44;6.20;;;5.47;;
14040;SDS011;7095;51.388;6.196;2022-07-06T03:30:15;14.37;;;5.77;;
14040;SDS011;7095;51.388;6.196;2022-07-06T03:32:50;11.50;;;5.87;;
14040;SDS011;7095;51.388;6.196;2022-07-06T03:35:22;8.37;;;5.60;;
14040;SDS011;7095;51.388;6.196;2022-07-06T03:37:52;9.30;;;5.53;;
14040;SDS011;7095;51.388;6.196;2022-07-06T03:40:23;10.53;;;7.33;;
14040;SDS011;7095;51.388;6.196;2022-07-06T03:42:52;9.23;;;6.20;;
14040;SDS011;7095;51.388;6.196;2022-07-06T03:45:21;10.33;;;6.23;;
14040;SDS011;7095;51.388;6.196;2022-07-06T03:47:50;7.90;;;5.50;;
14040;SDS011;7095;51.388;6.196;2022-07-06T03:50:19;7.03;;;5.83;;
14040;SDS011;7095;51.388;6.196;2022-07-06T03:52:50;10.13;;;5.70;;
14040;SDS011;7095;51.388;6.196;2022-07-06T03:55:19;7.73;;;5.07;;
14040;SDS011;7095;51.388;6.196;2022-07-06T03:57:53;9.43;;;6.90;;
14040;SDS011;7095;51.388;6.196;2022-07-06T04:00:23;9.23;;;6.17;;
14040;SDS011;7095;51.388;6.196;2022-07-06T04:02:59;8.43;;;5.60;;
14040;SDS011;7095;51.388;6.196;2022-07-06T04:05:33;10.70;;;6.33;;
14040;SDS011;7095;51.388;6.196;2022-07-06T04:08:03;6.53;;;5.80;;
14040;SDS011;7095;51.388;6.196;2022-07-06T04:10:37;9.53;;;6.40;;
14040;SDS011;7095;51.388;6.196;2022-07-06T04:13:06;11.00;;;6.93;;
14040;SDS011;7095;51.388;6.196;2022-07-06T04:15:35;9.97;;;6.83;;
14040;SDS011;7095;51.388;6.196;2022-07-06T04:18:05;9.97;;;6.63;;
14040;SDS011;7095;51.388;6.196;2022-07-06T04:20:43;9.73;;;6.93;;
14040;SDS011;7095;51.388;6.196;2022-07-06T04:23:13;9.80;;;6.53;;
14040;SDS011;7095;51.388;6.196;2022-07-06T04:25:46;11.50;;;5.80;;
14040;SDS011;7095;51.388;6.196;2022-07-06T04:28:15;8.27;;;5.40;;
14040;SDS011;7095;51.388;6.196;2022-07-06T04:30:45;13.80;;;5.53;;
14040;SDS011;7095;51.388;6.196;2022-07-06T04:33:17;8.63;;;5.93;;
14040;SDS011;7095;51.388;6.196;2022-07-06T04:35:48;9.83;;;5.77;;
14040;SDS011;7095;51.388;6.196;2022-07-06T04:38:20;12.33;;;5.73;;
14040;SDS011;7095;51.388;6.196;2022-07-06T04:40:52;8.83;;;5.43;;
14040;SDS011;7095;51.388;6.196;2022-07-06T04:43:20;6.60;;;5.43;;
14040;SDS011;7095;51.388;6.196;2022-07-06T04:45:49;8.90;;;5.63;;
14040;SDS011;7095;51.388;6.196;2022-07-06T04:48:18;9.93;;;4.80;;
14040;SDS011;7095;51.388;6.196;2022-07-06T04:50:48;8.17;;;4.40;;
14040;SDS011;7095;51.388;6.196;2022-07-06T04:53:24;6.10;;;5.50;;
14040;SDS011;7095;51.388;6.196;2022-07-06T04:55:54;10.53;;;4.73;;
14040;SDS011;7095;51.388;6.196;2022-07-06T04:58:24;7.10;;;4.70;;
14040;SDS011;7095;51.388;6.196;2022-07-06T05:00:53;8.27;;;4.50;;
14040;SDS011;7095;51.388;6.196;2022-07-06T05:03:23;9.20;;;4.80;;
14040;SDS011;7095;51.388;6.196;2022-07-06T05:05:53;10.40;;;4.53;;
14040;SDS011;7095;51.388;6.196;2022-07-06T05:08:22;9.47;;;4.13;;
14040;SDS011;7095;51.388;6.196;2022-07-06T05:10:53;7.37;;;4.10;;
14040;SDS011;7095;51.388;6.196;2022-07-06T05:13:22;7.57;;;4.60;;
14040;SDS011;7095;51.388;6.196;2022-07-06T05:15:51;9.97;;;5.03;;
14040;SDS011;7095;51.388;6.196;2022-07-06T05:18:20;7.43;;;4.80;;
14040;SDS011;7095;51.388;6.196;2022-07-06T05:20:49;12.20;;;5.53;;
14040;SDS011;7095;51.388;6.196;2022-07-06T05:23:19;8.60;;;4.37;;
14040;SDS011;7095;51.388;6.196;2022-07-06T05:25:48;8.70;;;4.50;;
14040;SDS011;7095;51.388;6.196;2022-07-06T05:28:18;10.53;;;5.00;;
14040;SDS011;7095;51.388;6.196;2022-07-06T05:30:48;9.77;;;5.20;;
14040;SDS011;7095;51.388;6.196;2022-07-06T05:33:17;10.07;;;4.77;;
14040;SDS011;7095;51.388;6.196;2022-07-06T05:35:46;5.80;;;5.20;;
14040;SDS011;7095;51.388;6.196;2022-07-06T05:38:21;8.90;;;5.13;;
14040;SDS011;7095;51.388;6.196;2022-07-06T05:40:52;11.97;;;5.23;;
14040;SDS011;7095;51.388;6.196;2022-07-06T05:43:22;16.83;;;5.43;;
14040;SDS011;7095;51.388;6.196;2022-07-06T05:45:53;6.93;;;5.17;;
14040;SDS011;7095;51.388;6.196;2022-07-06T05:48:25;7.97;;;4.60;;
14040;SDS011;7095;51.388;6.196;2022-07-06T05:51:11;7.63;;;4.40;;
14040;SDS011;7095;51.388;6.196;2022-07-06T05:53:42;9.00;;;4.80;;
14040;SDS011;7095;51.388;6.196;2022-07-06T05:56:11;6.10;;;4.40;;
14040;SDS011;7095;51.388;6.196;2022-07-06T05:58:41;6.07;;;4.13;;
14040;SDS011;7095;51.388;6.196;2022-07-06T06:01:09;6.23;;;4.60;;
14040;SDS011;7095;51.388;6.196;2022-07-06T06:03:40;7.80;;;4.70;;
14040;SDS011;7095;51.388;6.196;2022-07-06T06:06:12;5.87;;;4.60;;
14040;SDS011;7095;51.388;6.196;2022-07-06T06:08:41;8.83;;;4.50;;
14040;SDS011;7095;51.388;6.196;2022-07-06T06:11:10;5.80;;;4.27;;
14040;SDS011;7095;51.388;6.196;2022-07-06T06:13:42;7.07;;;4.50;;
14040;SDS011;7095;51.388;6.196;2022-07-06T06:16:10;5.37;;;4.87;;
14040;SDS011;7095;51.388;6.196;2022-07-06T06:18:39;8.97;;;4.30;;
14040;SDS011;7095;51.388;6.196;2022-07-06T06:21:09;7.30;;;4.30;;
14040;SDS011;7095;51.388;6.196;2022-07-06T06:23:38;7.50;;;4.43;;
14040;SDS011;7095;51.388;6.196;2022-07-06T06:26:07;8.73;;;4.80;;
14040;SDS011;7095;51.388;6.196;2022-07-06T06:28:35;16.23;;;4.10;;
14040;SDS011;7095;51.388;6.196;2022-07-06T06:31:06;5.17;;;3.80;;
14040;SDS011;7095;51.388;6.196;2022-07-06T06:33:35;8.43;;;3.53;;
14040;SDS011;7095;51.388;6.196;2022-07-06T06:36:03;7.83;;;3.60;;
14040;SDS011;7095;51.388;6.196;2022-07-06T06:38:32;7.67;;;3.30;;
14040;SDS011;7095;51.388;6.196;2022-07-06T06:41:01;10.37;;;3.30;;
14040;SDS011;7095;51.388;6.196;2022-07-06T06:43:29;6.80;;;2.77;;
14040;SDS011;7095;51.388;6.196;2022-07-06T06:46:09;7.93;;;2.60;;
14040;SDS011;7095;51.388;6.196;2022-07-06T06:48:37;6.40;;;2.30;;
14040;SDS011;7095;51.388;6.196;2022-07-06T06:51:06;3.93;;;1.93;;
14040;SDS011;7095;51.388;6.196;2022-07-06T06:53:35;6.27;;;2.20;;
14040;SDS011;7095;51.388;6.196;2022-07-06T06:56:06;3.07;;;2.03;;
14040;SDS011;7095;51.388;6.196;2022-07-06T06:58:35;6.00;;;2.60;;
14040;SDS011;7095;51.388;6.196;2022-07-06T07:01:25;4.03;;;2.47;;
14040;SDS011;7095;51.388;6.196;2022-07-06T07:03:54;3.50;;;2.10;;
14040;SDS011;7095;51.388;6.196;2022-07-06T07:06:23;3.40;;;2.33;;
14040;SDS011;7095;51.388;6.196;2022-07-06T07:08:52;6.13;;;2.30;;
14040;SDS011;7095;51.388;6.196;2022-07-06T07:11:22;6.57;;;2.33;;
14040;SDS011;7095;51.388;6.196;2022-07-06T07:13:53;8.43;;;2.60;;
14040;SDS011;7095;51.388;6.196;2022-07-06T07:16:21;4.90;;;2.43;;
14040;SDS011;7095;51.388;6.196;2022-07-06T07:18:52;7.53;;;2.30;;
14040;SDS011;7095;51.388;6.196;2022-07-06T07:21:21;9.80;;;2.33;;
14040;SDS011;7095;51.388;6.196;2022-07-06T07:23:50;3.73;;;2.10;;
14040;SDS011;7095;51.388;6.196;2022-07-06T07:26:19;7.53;;;2.03;;
14040;SDS011;7095;51.388;6.196;2022-07-06T07:28:48;7.10;;;2.63;;
14040;SDS011;7095;51.388;6.196;2022-07-06T07:31:16;6.07;;;2.50;;
14040;SDS011;7095;51.388;6.196;2022-07-06T07:33:45;3.40;;;2.43;;
14040;SDS011;7095;51.388;6.196;2022-07-06T07:36:15;5.20;;;2.70;;
14040;SDS011;7095;51.388;6.196;2022-07-06T07:38:43;4.70;;;2.37;;
14040;SDS011;7095;51.388;6.196;2022-07-06T07:41:12;7.73;;;2.30;;
14040;SDS011;7095;51.388;6.196;2022-07-06T07:43:41;3.43;;;2.10;;
14040;SDS011;7095;51.388;6.196;2022-07-06T07:46:09;5.70;;;2.10;;
14040;SDS011;7095;51.388;6.196;2022-07-06T07:48:38;2.67;;;2.17;;
14040;SDS011;7095;51.388;6.196;2022-07-06T07:51:07;7.00;;;2.20;;
14040;SDS011;7095;51.388;6.196;2022-07-06T07:53:37;7.07;;;2.13;;
14040;SDS011;7095;51.388;6.196;2022-07-06T07:56:06;5.10;;;2.40;;
14040;SDS011;7095;51.388;6.196;2022-07-06T07:58:35;5.20;;;2.30;;
14040;SDS011;7095;51.388;6.196;2022-07-06T08:01:05;6.60;;;3.13;;
14040;SDS011;7095;51.388;6.196;2022-07-06T08:03:34;7.87;;;2.40;;
14040;SDS011;7095;51.388;6.196;2022-07-06T08:06:02;3.27;;;2.07;;
14040;SDS011;7095;51.388;6.196;2022-07-06T08:08:31;6.77;;;2.53;;
14040;SDS011;7095;51.388;6.196;2022-07-06T08:11:01;4.57;;;2.30;;
14040;SDS011;7095;51.388;6.196;2022-07-06T08:13:45;3.07;;;1.93;;
14040;SDS011;7095;51.388;6.196;2022-07-06T08:16:14;5.10;;;1.87;;
14040;SDS011;7095;51.388;6.196;2022-07-06T08:18:43;5.23;;;2.17;;
14040;SDS011;7095;51.388;6.196;2022-07-06T08:21:12;4.10;;;2.00;;
14040;SDS011;7095;51.388;6.196;2022-07-06T08:23:52;3.70;;;1.53;;
14040;SDS011;7095;51.388;6.196;2022-07-06T08:26:23;10.00;;;1.70;;
14040;SDS011;7095;51.388;6.196;2022-07-06T08:28:52;2.20;;;1.67;;
14040;SDS011;7095;51.388;6.196;2022-07-06T08:31:20;3.90;;;1.87;;
14040;SDS011;7095;51.388;6.196;2022-07-06T08:34:09;6.43;;;2.20;;
14040;SDS011;7095;51.388;6.196;2022-07-06T08:36:38;3.27;;;1.87;;
14040;SDS011;7095;51.388;6.196;2022-07-06T08:39:07;4.30;;;1.87;;
14040;SDS011;7095;51.388;6.196;2022-07-06T08:41:37;2.23;;;1.60;;
14040;SDS011;7095;51.388;6.196;2022-07-06T08:44:09;4.80;;;1.53;;
14040;SDS011;7095;51.388;6.196;2022-07-06T08:46:38;6.97;;;1.53;;
14040;SDS011;7095;51.388;6.196;2022-07-06T08:49:07;2.87;;;1.53;;
14040;SDS011;7095;51.388;6.196;2022-07-06T08:51:40;5.47;;;1.83;;
14040;SDS011;7095;51.388;6.196;2022-07-06T08:54:09;3.10;;;1.70;;
14040;SDS011;7095;51.388;6.196;2022-07-06T08:56:40;4.63;;;1.63;;
14040;SDS011;7095;51.388;6.196;2022-07-06T08:59:14;6.40;;;2.23;;
14040;SDS011;7095;51.388;6.196;2022-07-06T09:01:47;3.87;;;1.40;;
14040;SDS011;7095;51.388;6.196;2022-07-06T09:04:16;5.27;;;1.73;;
14040;SDS011;7095;51.388;6.196;2022-07-06T09:06:46;1.63;;;1.07;;
14040;SDS011;7095;51.388;6.196;2022-07-06T09:09:18;3.67;;;1.10;;
14040;SDS011;7095;51.388;6.196;2022-07-06T09:11:50;2.63;;;1.30;;
14040;SDS011;7095;51.388;6.196;2022-07-06T09:14:19;4.23;;;1.43;;
14040;SDS011;7095;51.388;6.196;2022-07-06T09:16:51;4.07;;;1.73;;
14040;SDS011;7095;51.388;6.196;2022-07-06T09:19:28;3.83;;;1.40;;
14040;SDS011;7095;51.388;6.196;2022-07-06T09:21:59;1.80;;;1.10;;
14040;SDS011;7095;51.388;6.196;2022-07-06T09:24:28;2.67;;;1.10;;
14040;SDS011;7095;51.388;6.196;2022-07-06T09:26:59;2.40;;;1.37;;
14040;SDS011;7095;51.388;6.196;2022-07-06T09:29:31;3.80;;;1.37;;
14040;SDS011;7095;51.388;6.196;2022-07-06T09:32:01;3.13;;;1.63;;
14040;SDS011;7095;51.388;6.196;2022-07-06T09:34:42;5.20;;;1.03;;
14040;SDS011;7095;51.388;6.196;2022-07-06T09:37:15;0.93;;;0.67;;
14040;SDS011;7095;51.388;6.196;2022-07-06T09:39:52;1.40;;;0.60;;
14040;SDS011;7095;51.388;6.196;2022-07-06T09:42:25;2.53;;;1.03;;
14040;SDS011;7095;51.388;6.196;2022-07-06T09:44:54;1.73;;;1.00;;
14040;SDS011;7095;51.388;6.196;2022-07-06T09:47:22;3.63;;;1.20;;
14040;SDS011;7095;51.388;6.196;2022-07-06T09:49:55;4.47;;;1.10;;
14040;SDS011;7095;51.388;6.196;2022-07-06T09:52:24;2.27;;;1.00;;
14040;SDS011;7095;51.388;6.196;2022-07-06T09:54:53;2.00;;;1.03;;
14040;SDS011;7095;51.388;6.196;2022-07-06T09:57:22;3.60;;;1.67;;
14040;SDS011;7095;51.388;6.196;2022-07-06T09:59:52;3.57;;;1.10;;
14040;SDS011;7095;51.388;6.196;2022-07-06T10:02:20;1.40;;;0.97;;
14040;SDS011;7095;51.388;6.196;2022-07-06T10:04:50;2.77;;;0.80;;
14040;SDS011;7095;51.388;6.196;2022-07-06T10:07:20;2.37;;;1.00;;
14040;SDS011;7095;51.388;6.196;2022-07-06T10:09:52;2.30;;;1.23;;
14040;SDS011;7095;51.388;6.196;2022-07-06T10:12:21;4.70;;;1.10;;
14040;SDS011;7095;51.388;6.196;2022-07-06T10:14:51;4.80;;;1.00;;
14040;SDS011;7095;51.388;6.196;2022-07-06T10:17:20;2.37;;;0.80;;
14040;SDS011;7095;51.388;6.196;2022-07-06T10:19:50;1.70;;;1.07;;
14040;SDS011;7095;51.388;6.196;2022-07-06T10:22:20;2.10;;;0.60;;
14040;SDS011;7095;51.388;6.196;2022-07-06T10:24:49;2.23;;;0.80;;
14040;SDS011;7095;51.388;6.196;2022-07-06T10:27:19;4.97;;;1.10;;
14040;SDS011;7095;51.388;6.196;2022-07-06T10:29:48;3.47;;;0.90;;
14040;SDS011;7095;51.388;6.196;2022-07-06T10:32:19;3.43;;;1.03;;
14040;SDS011;7095;51.388;6.196;2022-07-06T10:34:48;3.27;;;1.33;;
14040;SDS011;7095;51.388;6.196;2022-07-06T10:37:21;4.23;;;1.10;;
14040;SDS011;7095;51.388;6.196;2022-07-06T10:39:52;3.13;;;0.93;;
14040;SDS011;7095;51.388;6.196;2022-07-06T10:42:44;2.53;;;1.07;;
14040;SDS011;7095;51.388;6.196;2022-07-06T10:45:19;4.87;;;0.97;;
14040;SDS011;7095;51.388;6.196;2022-07-06T10:50:53;1.90;;;1.00;;
14040;SDS011;7095;51.388;6.196;2022-07-06T10:53:24;4.73;;;1.20;;
14040;SDS011;7095;51.388;6.196;2022-07-06T10:55:53;2.87;;;0.83;;
14040;SDS011;7095;51.388;6.196;2022-07-06T10:58:40;3.37;;;0.73;;
14040;SDS011;7095;51.388;6.196;2022-07-06T11:01:14;3.27;;;1.10;;
14040;SDS011;7095;51.388;6.196;2022-07-06T11:03:44;3.37;;;0.90;;
14040;SDS011;7095;51.388;6.196;2022-07-06T11:06:17;3.43;;;1.10;;
14040;SDS011;7095;51.388;6.196;2022-07-06T11:08:48;1.07;;;0.70;;
14040;SDS011;7095;51.388;6.196;2022-07-06T11:11:22;3.30;;;0.97;;
14040;SDS011;7095;51.388;6.196;2022-07-06T11:13:54;5.30;;;1.20;;
14040;SDS011;7095;51.388;6.196;2022-07-06T11:16:28;6.37;;;1.43;;
14040;SDS011;7095;51.388;6.196;2022-07-06T11:19:02;2.77;;;1.30;;
14040;SDS011;7095;51.388;6.196;2022-07-06T11:21:36;7.83;;;1.40;;
14040;SDS011;7095;51.388;6.196;2022-07-06T11:24:12;3.67;;;1.00;;
14040;SDS011;7095;51.388;6.196;2022-07-06T11:26:45;6.30;;;1.60;;
14040;SDS011;7095;51.388;6.196;2022-07-06T11:29:15;6.07;;;1.40;;
14040;SDS011;7095;51.388;6.196;2022-07-06T11:31:49;3.30;;;1.30;;
14040;SDS011;7095;51.388;6.196;2022-07-06T11:34:20;4.80;;;1.27;;
14040;SDS011;7095;51.388;6.196;2022-07-06T11:36:55;2.50;;;1.07;;
14040;SDS011;7095;51.388;6.196;2022-07-06T11:39:26;2.40;;;0.93;;
14040;SDS011;7095;51.388;6.196;2022-07-06T11:41:58;2.00;;;0.67;;
14040;SDS011;7095;51.388;6.196;2022-07-06T11:44:30;4.57;;;1.00;;
14040;SDS011;7095;51.388;6.196;2022-07-06T11:47:00;2.90;;;1.50;;
14040;SDS011;7095;51.388;6.196;2022-07-06T11:49:30;4.77;;;1.00;;
14040;SDS011;7095;51.388;6.196;2022-07-06T11:52:06;3.43;;;1.07;;
14040;SDS011;7095;51.388;6.196;2022-07-06T11:54:36;4.10;;;1.30;;
14040;SDS011;7095;51.388;6.196;2022-07-06T11:57:07;2.30;;;0.97;;
14040;SDS011;7095;51.388;6.196;2022-07-06T11:59:38;1.63;;;0.97;;
14040;SDS011;7095;51.388;6.196;2022-07-06T12:02:08;2.90;;;1.20;;
14040;SDS011;7095;51.388;6.196;2022-07-06T12:04:39;2.93;;;0.87;;
14040;SDS011;7095;51.388;6.196;2022-07-06T12:07:11;3.93;;;0.80;;
14040;SDS011;7095;51.388;6.196;2022-07-06T12:09:41;2.40;;;0.87;;
14040;SDS011;7095;51.388;6.196;2022-07-06T12:12:11;2.37;;;0.60;;
14040;SDS011;7095;51.388;6.196;2022-07-06T12:14:41;1.33;;;0.80;;
14040;SDS011;7095;51.388;6.196;2022-07-06T12:17:11;4.23;;;0.80;;
14040;SDS011;7095;51.388;6.196;2022-07-06T12:19:42;2.30;;;0.80;;
14040;SDS011;7095;51.388;6.196;2022-07-06T12:22:12;5.07;;;0.90;;
14040;SDS011;7095;51.388;6.196;2022-07-06T12:24:42;3.27;;;0.80;;
14040;SDS011;7095;51.388;6.196;2022-07-06T12:27:13;4.70;;;1.13;;
14040;SDS011;7095;51.388;6.196;2022-07-06T12:29:44;2.83;;;0.90;;
14040;SDS011;7095;51.388;6.196;2022-07-06T12:32:14;2.27;;;0.87;;
14040;SDS011;7095;51.388;6.196;2022-07-06T12:34:44;6.17;;;0.80;;
14040;SDS011;7095;51.388;6.196;2022-07-06T12:37:14;1.83;;;0.93;;
14040;SDS011;7095;51.388;6.196;2022-07-06T12:39:44;2.57;;;0.67;;
14040;SDS011;7095;51.388;6.196;2022-07-06T12:42:15;1.50;;;0.70;;
14040;SDS011;7095;51.388;6.196;2022-07-06T12:44:47;4.63;;;1.03;;
14040;SDS011;7095;51.388;6.196;2022-07-06T12:47:17;4.17;;;0.90;;
14040;SDS011;7095;51.388;6.196;2022-07-06T12:49:48;3.27;;;0.77;;
14040;SDS011;7095;51.388;6.196;2022-07-06T12:52:32;1.47;;;0.60;;
14040;SDS011;7095;51.388;6.196;2022-07-06T12:55:01;4.20;;;1.20;;
14040;SDS011;7095;51.388;6.196;2022-07-06T12:57:42;3.00;;;1.00;;
14040;SDS011;7095;51.388;6.196;2022-07-06T13:00:12;1.80;;;0.87;;
14040;SDS011;7095;51.388;6.196;2022-07-06T13:02:43;3.07;;;0.93;;
14040;SDS011;7095;51.388;6.196;2022-07-06T13:05:33;4.78;;;1.10;;
14040;SDS011;7095;51.388;6.196;2022-07-06T13:08:04;3.92;;;1.35;;
14040;SDS011;7095;51.388;6.196;2022-07-06T13:10:32;3.13;;;0.90;;
14040;SDS011;7095;51.388;6.196;2022-07-06T13:13:02;2.70;;;1.00;;
14040;SDS011;7095;51.388;6.196;2022-07-06T13:15:31;3.67;;;0.90;;
14040;SDS011;7095;51.388;6.196;2022-07-06T13:18:00;6.60;;;1.20;;
14040;SDS011;7095;51.388;6.196;2022-07-06T13:20:29;4.30;;;1.03;;
14040;SDS011;7095;51.388;6.196;2022-07-06T13:22:58;3.58;;;1.10;;
14040;SDS011;7095;51.388;6.196;2022-07-06T13:25:28;3.93;;;1.00;;
14040;SDS011;7095;51.388;6.196;2022-07-06T13:27:57;3.30;;;1.10;;
14040;SDS011;7095;51.388;6.196;2022-07-06T13:30:26;4.70;;;1.03;;
14040;SDS011;7095;51.388;6.196;2022-07-06T13:32:54;3.03;;;0.90;;
14040;SDS011;7095;51.388;6.196;2022-07-06T13:35:24;2.93;;;1.10;;
14040;SDS011;7095;51.388;6.196;2022-07-06T13:37:53;1.47;;;0.97;;
14040;SDS011;7095;51.388;6.196;2022-07-06T13:40:22;6.07;;;1.20;;
14040;SDS011;7095;51.388;6.196;2022-07-06T13:42:52;3.30;;;1.03;;
14040;SDS011;7095;51.388;6.196;2022-07-06T13:45:21;3.20;;;0.80;;
14040;SDS011;7095;51.388;6.196;2022-07-06T13:47:51;3.40;;;1.00;;
14040;SDS011;7095;51.388;6.196;2022-07-06T13:50:22;1.63;;;0.70;;
14040;SDS011;7095;51.388;6.196;2022-07-06T13:52:52;6.07;;;0.83;;
14040;SDS011;7095;51.388;6.196;2022-07-06T13:55:21;4.00;;;1.17;;
14040;SDS011;7095;51.388;6.196;2022-07-06T13:57:49;1.57;;;0.90;;
14040;SDS011;7095;51.388;6.196;2022-07-06T14:00:19;2.20;;;0.77;;
14040;SDS011;7095;51.388;6.196;2022-07-06T14:02:48;3.03;;;0.90;;
14040;SDS011;7095;51.388;6.196;2022-07-06T14:05:17;1.73;;;0.70;;
14040;SDS011;7095;51.388;6.196;2022-07-06T14:07:45;3.20;;;0.87;;
14040;SDS011;7095;51.388;6.196;2022-07-06T14:10:14;2.20;;;1.13;;
14040;SDS011;7095;51.388;6.196;2022-07-06T14:12:43;4.27;;;1.00;;
14040;SDS011;7095;51.388;6.196;2022-07-06T14:15:12;2.50;;;0.97;;
14040;SDS011;7095;51.388;6.196;2022-07-06T14:17:42;5.97;;;1.00;;
14040;SDS011;7095;51.388;6.196;2022-07-06T14:20:10;2.23;;;0.80;;
14040;SDS011;7095;51.388;6.196;2022-07-06T14:22:39;1.83;;;0.80;;
14040;SDS011;7095;51.388;6.196;2022-07-06T14:25:08;1.73;;;0.80;;
14040;SDS011;7095;51.388;6.196;2022-07-06T14:27:37;3.37;;;1.10;;
14040;SDS011;7095;51.388;6.196;2022-07-06T14:30:07;3.20;;;1.00;;
14040;SDS011;7095;51.388;6.196;2022-07-06T14:32:37;6.10;;;2.00;;
14040;SDS011;7095;51.388;6.196;2022-07-06T14:35:07;4.93;;;0.93;;
14040;SDS011;7095;51.388;6.196;2022-07-06T14:37:36;2.27;;;0.83;;
14040;SDS011;7095;51.388;6.196;2022-07-06T14:40:05;1.83;;;0.60;;
14040;SDS011;7095;51.388;6.196;2022-07-06T14:42:34;1.70;;;0.90;;
14040;SDS011;7095;51.388;6.196;2022-07-06T14:45:03;2.63;;;1.00;;
14040;SDS011;7095;51.388;6.196;2022-07-06T14:47:32;2.43;;;0.70;;
14040;SDS011;7095;51.388;6.196;2022-07-06T14:50:00;7.07;;;1.57;;
14040;SDS011;7095;51.388;6.196;2022-07-06T14:52:30;2.43;;;0.90;;
14040;SDS011;7095;51.388;6.196;2022-07-06T14:54:59;4.03;;;1.27;;
14040;SDS011;7095;51.388;6.196;2022-07-06T14:57:30;2.30;;;0.90;;
14040;SDS011;7095;51.388;6.196;2022-07-06T14:59:58;5.13;;;1.30;;
14040;SDS011;7095;51.388;6.196;2022-07-06T15:02:27;4.13;;;0.80;;
14040;SDS011;7095;51.388;6.196;2022-07-06T15:04:56;2.47;;;0.80;;
14040;SDS011;7095;51.388;6.196;2022-07-06T15:07:25;2.17;;;1.03;;
14040;SDS011;7095;51.388;6.196;2022-07-06T15:09:54;5.27;;;1.23;;
14040;SDS011;7095;51.388;6.196;2022-07-06T15:12:23;2.67;;;1.00;;
14040;SDS011;7095;51.388;6.196;2022-07-06T15:14:52;2.83;;;1.07;;
14040;SDS011;7095;51.388;6.196;2022-07-06T15:17:20;4.97;;;1.10;;
14040;SDS011;7095;51.388;6.196;2022-07-06T15:19:49;2.87;;;1.30;;
14040;SDS011;7095;51.388;6.196;2022-07-06T15:22:20;3.43;;;1.17;;